Monday, April 24, 2017, 10:48 PM EDT
Back to Local

KPTW, Pottstown Limerick Airport

Location: Royersford, PA, United States Lat: 40.233
Local Time: 10:48 PM EDT ( 2:48 GMT) Lon: -75.55
Time Zone: US/Eastern Elev: 291 ft

Show me the last for .
Show Decoded

2017-04-24 21:54 METAR KPTW 250154Z AUTO 08005KT 10SM OVC055 12/02 A3011 RMK AO2 SLP193 T01220022
                 =
2017-04-24 20:54 METAR KPTW 250054Z AUTO 06005KT 10SM OVC060 12/02 A3010 RMK AO2 SLP190 T01220017
                 =
2017-04-24 19:54 METAR KPTW 242354Z AUTO 08006KT 10SM OVC060 13/01 A3010 RMK AO2 SLP189 60000
                 T01280011 10139 20122 56006 =
2017-04-24 18:54 METAR KPTW 242254Z AUTO 07005KT 10SM OVC060 13/02 A3010 RMK AO2 RAB17E46 SLP191
                 P0000 T01280022 =
2017-04-24 17:54 METAR KPTW 242154Z AUTO 07007KT 10SM OVC070 13/02 A3011 RMK AO2 SLP193 T01330017
                 =
2017-04-24 16:54 METAR KPTW 242054Z AUTO 09006KT 10SM OVC070 14/03 A3011 RMK AO2 SLP195 T01390028
                 58005 =
2017-04-24 15:54 METAR KPTW 241954Z AUTO 08009KT 10SM OVC075 14/02 A3011 RMK AO2 SLP195 T01390022
                 =
2017-04-24 14:54 METAR KPTW 241854Z AUTO 08006KT 10SM OVC075 13/04 A3013 RMK AO2 SLP202 T01330039
                 =
2017-04-24 13:54 METAR KPTW 241754Z AUTO VRB04KT 10SM OVC080 13/05 A3013 RMK AO2 RAB36E51 SLP201
                 P0000 60000 T01280050 10128 20089 58009 =
2017-04-24 12:54 METAR KPTW 241654Z AUTO 05008KT 10SM BKN075 OVC090 12/05 A3013 RMK AO2 RAB21E38
                 SLP202 P0000 T01170050 =
2017-04-24 11:54 METAR KPTW 241554Z AUTO 09005KT 10SM OVC095 11/06 A3015 RMK AO2 RAB26E38 SLP209
                 P0000 T01110056 =
2017-04-24 10:54 METAR KPTW 241454Z AUTO 07005KT 9SM FEW075 OVC100 11/07 A3016 RMK AO2 RAB23E34
                 SLP210 P0000 60000 T01060067 50002 =
2017-04-24 09:54 METAR KPTW 241354Z AUTO 00000KT 8SM FEW055 OVC100 10/07 A3017 RMK AO2 SLP214
                 T01000072 =
2017-04-24 08:54 METAR KPTW 241254Z AUTO 07003KT 8SM OVC100 09/07 A3016 RMK AO2 SLP212 T00940072
                 =
2017-04-24 07:54 METAR KPTW 241154Z AUTO 06004KT 7SM BKN120 09/07 A3015 RMK AO2 SLP208 T00890072
                 10089 20056 51013 =
2017-04-24 06:54 METAR KPTW 241054Z AUTO 05004KT 6SM BR CLR 08/07 A3014 RMK AO2 SLP204 T00830072
                 =
2017-04-24 05:54 METAR KPTW 240954Z AUTO 00000KT 8SM CLR 08/07 A3012 RMK AO2 SLP198 T00780072 =
2017-04-24 04:54 METAR KPTW 240854Z AUTO 00000KT 8SM FEW120 08/07 A3011 RMK AO2 SLP194 T00780072
                 55003 =
2017-04-24 03:54 METAR KPTW 240754Z AUTO 05003KT 8SM CLR 07/07 A3011 RMK AO2 SLP193 T00720067 =
2017-04-24 02:54 METAR KPTW 240654Z AUTO 00000KT 7SM CLR 06/06 A3011 RMK AO2 SLP193 T00610056 =
2017-04-24 01:54 METAR KPTW 240554Z AUTO 00000KT 9SM CLR 07/06 A3012 RMK AO2 SLP198 T00720056
                 10156 20061 58004 =
2017-04-24 00:54 METAR KPTW 240454Z AUTO 00000KT 9SM CLR 07/06 A3013 RMK AO2 SLP201 T00670056
                 401830028 =
2017-04-23 23:54 METAR KPTW 240354Z AUTO 00000KT 10SM CLR 09/07 A3014 RMK AO2 SLP203 T00940072 =
2017-04-23 22:54 METAR KPTW 240254Z AUTO 18004KT 10SM CLR 11/07 A3013 RMK AO2 SLP202 T01110072
                 51017 =

Support USWX by starting your Amazon purchase here.